sensor_id;sensor_type;location;lat;lon;timestamp;pressure;altitude;pressure_sealevel;temperature;humidity
8894;BME280;4483;48.622;9.230;2023-09-19T00:02:02;97546.59;;;16.56;100.00
8894;BME280;4483;48.622;9.230;2023-09-19T00:04:31;97550.78;;;16.58;100.00
8894;BME280;4483;48.622;9.230;2023-09-19T00:06:57;97542.03;;;16.59;100.00
8894;BME280;4483;48.622;9.230;2023-09-19T00:09:24;97551.63;;;16.59;100.00
8894;BME280;4483;48.622;9.230;2023-09-19T00:11:53;97548.91;;;16.60;100.00
8894;BME280;4483;48.622;9.230;2023-09-19T00:14:19;97554.50;;;16.54;100.00
8894;BME280;4483;48.622;9.230;2023-09-19T00:16:49;97558.25;;;16.50;100.00
8894;BME280;4483;48.622;9.230;2023-09-19T00:19:17;97555.66;;;16.50;100.00
8894;BME280;4483;48.622;9.230;2023-09-19T00:21:44;97547.97;;;16.49;100.00
8894;BME280;4483;48.622;9.230;2023-09-19T00:24:11;97545.56;;;16.46;100.00
8894;BME280;4483;48.622;9.230;2023-09-19T00:26:38;97554.75;;;16.51;100.00
8894;BME280;4483;48.622;9.230;2023-09-19T00:29:06;97556.19;;;16.55;100.00
8894;BME280;4483;48.622;9.230;2023-09-19T00:31:34;97564.69;;;16.57;100.00
8894;BME280;4483;48.622;9.230;2023-09-19T00:34:03;97565.34;;;16.61;100.00
8894;BME280;4483;48.622;9.230;2023-09-19T00:36:32;97559.31;;;16.60;100.00
8894;BME280;4483;48.622;9.230;2023-09-19T00:39:00;97555.88;;;16.60;100.00
8894;BME280;4483;48.622;9.230;2023-09-19T00:41:26;97560.22;;;16.59;100.00
8894;BME280;4483;48.622;9.230;2023-09-19T00:43:55;97561.19;;;16.58;100.00
8894;BME280;4483;48.622;9.230;2023-09-19T00:46:22;97561.06;;;16.60;100.00
8894;BME280;4483;48.622;9.230;2023-09-19T00:48:48;97552.22;;;16.62;100.00
8894;BME280;4483;48.622;9.230;2023-09-19T00:51:15;97541.59;;;16.65;100.00
8894;BME280;4483;48.622;9.230;2023-09-19T00:53:46;97552.00;;;16.65;100.00
8894;BME280;4483;48.622;9.230;2023-09-19T00:56:13;97546.19;;;16.62;100.00
8894;BME280;4483;48.622;9.230;2023-09-19T00:58:40;97550.34;;;16.64;100.00
8894;BME280;4483;48.622;9.230;2023-09-19T01:01:07;97554.84;;;16.62;100.00
8894;BME280;4483;48.622;9.230;2023-09-19T01:03:33;97550.78;;;16.58;100.00
8894;BME280;4483;48.622;9.230;2023-09-19T01:06:00;97562.63;;;16.62;100.00
8894;BME280;4483;48.622;9.230;2023-09-19T01:08:27;97563.78;;;16.58;100.00
8894;BME280;4483;48.622;9.230;2023-09-19T01:11:10;97574.19;;;16.58;100.00
8894;BME280;4483;48.622;9.230;2023-09-19T01:13:49;97572.50;;;16.57;100.00
8894;BME280;4483;48.622;9.230;2023-09-19T01:16:28;97568.34;;;16.55;100.00
8894;BME280;4483;48.622;9.230;2023-09-19T01:19:06;97564.81;;;16.56;100.00
8894;BME280;4483;48.622;9.230;2023-09-19T01:21:39;97564.69;;;16.57;100.00
8894;BME280;4483;48.622;9.230;2023-09-19T01:24:29;97570.13;;;16.54;100.00
8894;BME280;4483;48.622;9.230;2023-09-19T01:27:21;97567.63;;;16.53;100.00
8894;BME280;4483;48.622;9.230;2023-09-19T01:29:51;97570.97;;;16.55;100.00
8894;BME280;4483;48.622;9.230;2023-09-19T01:32:21;97569.28;;;16.54;100.00
8894;BME280;4483;48.622;9.230;2023-09-19T01:34:51;97567.00;;;16.49;100.00
8894;BME280;4483;48.622;9.230;2023-09-19T01:37:20;97568.25;;;16.56;100.00
8894;BME280;4483;48.622;9.230;2023-09-19T01:39:52;97570.13;;;16.54;100.00
8894;BME280;4483;48.622;9.230;2023-09-19T01:42:27;97578.25;;;16.50;100.00
8894;BME280;4483;48.622;9.230;2023-09-19T01:45:03;97579.78;;;16.52;100.00
8894;BME280;4483;48.622;9.230;2023-09-19T01:47:37;97580.75;;;16.51;100.00
8894;BME280;4483;48.622;9.230;2023-09-19T01:50:12;97583.13;;;16.54;100.00
8894;BME280;4483;48.622;9.230;2023-09-19T01:52:48;97591.03;;;16.53;100.00
8894;BME280;4483;48.622;9.230;2023-09-19T01:55:16;97592.91;;;16.51;100.00
8894;BME280;4483;48.622;9.230;2023-09-19T01:57:49;97592.59;;;16.55;100.00
8894;BME280;4483;48.622;9.230;2023-09-19T02:00:18;97597.81;;;16.55;100.00
8894;BME280;4483;48.622;9.230;2023-09-19T02:02:48;97600.50;;;16.54;100.00
8894;BME280;4483;48.622;9.230;2023-09-19T02:05:22;97603.19;;;16.52;100.00
8894;BME280;4483;48.622;9.230;2023-09-19T02:07:50;97598.41;;;16.46;100.00
8894;BME280;4483;48.622;9.230;2023-09-19T02:10:16;97619.66;;;16.53;100.00
8894;BME280;4483;48.622;9.230;2023-09-19T02:12:43;97606.84;;;16.50;100.00
8894;BME280;4483;48.622;9.230;2023-09-19T02:15:10;97623.91;;;16.54;100.00
8894;BME280;4483;48.622;9.230;2023-09-19T02:17:37;97620.66;;;16.50;100.00
8894;BME280;4483;48.622;9.230;2023-09-19T02:20:06;97623.38;;;16.49;100.00
8894;BME280;4483;48.622;9.230;2023-09-19T02:22:40;97621.38;;;16.40;100.00
8894;BME280;4483;48.622;9.230;2023-09-19T02:25:07;97614.41;;;16.40;100.00
8894;BME280;4483;48.622;9.230;2023-09-19T02:27:34;97628.88;;;16.44;100.00
8894;BME280;4483;48.622;9.230;2023-09-19T02:30:01;97621.25;;;16.41;100.00
8894;BME280;4483;48.622;9.230;2023-09-19T02:32:29;97620.44;;;16.41;100.00
8894;BME280;4483;48.622;9.230;2023-09-19T02:34:56;97623.88;;;16.41;100.00
8894;BME280;4483;48.622;9.230;2023-09-19T02:37:25;97620.97;;;16.33;100.00
8894;BME280;4483;48.622;9.230;2023-09-19T02:39:52;97626.25;;;16.32;100.00
8894;BME280;4483;48.622;9.230;2023-09-19T02:42:19;97630.81;;;16.28;100.00
8894;BME280;4483;48.622;9.230;2023-09-19T02:44:46;97637.88;;;16.26;100.00
8894;BME280;4483;48.622;9.230;2023-09-19T02:47:13;97641.44;;;16.25;100.00
8894;BME280;4483;48.622;9.230;2023-09-19T02:49:42;97631.03;;;16.25;100.00
8894;BME280;4483;48.622;9.230;2023-09-19T02:52:08;97638.94;;;16.24;100.00
8894;BME280;4483;48.622;9.230;2023-09-19T02:54:37;97641.75;;;16.21;100.00
8894;BME280;4483;48.622;9.230;2023-09-19T02:57:04;97636.72;;;16.18;100.00
8894;BME280;4483;48.622;9.230;2023-09-19T02:59:32;97633.72;;;16.11;100.00
8894;BME280;4483;48.622;9.230;2023-09-19T03:02:02;97638.28;;;16.07;100.00
8894;BME280;4483;48.622;9.230;2023-09-19T03:04:30;97639.09;;;16.08;100.00
8894;BME280;4483;48.622;9.230;2023-09-19T03:06:58;97640.03;;;16.07;100.00
8894;BME280;4483;48.622;9.230;2023-09-19T03:09:26;97646.06;;;16.07;100.00
8894;BME280;4483;48.622;9.230;2023-09-19T03:11:54;97631.72;;;16.02;100.00
8894;BME280;4483;48.622;9.230;2023-09-19T03:14:21;97643.47;;;16.07;100.00
8894;BME280;4483;48.622;9.230;2023-09-19T03:16:49;97642.63;;;16.07;100.00
8894;BME280;4483;48.622;9.230;2023-09-19T03:19:17;97647.94;;;16.05;100.00
8894;BME280;4483;48.622;9.230;2023-09-19T03:21:46;97643.78;;;16.03;100.00
8894;BME280;4483;48.622;9.230;2023-09-19T03:24:14;97642.84;;;16.04;100.00
8894;BME280;4483;48.622;9.230;2023-09-19T03:26:41;97643.56;;;16.06;100.00
8894;BME280;4483;48.622;9.230;2023-09-19T03:29:09;97633.16;;;16.06;100.00
8894;BME280;4483;48.622;9.230;2023-09-19T03:31:36;97638.28;;;16.07;100.00
8894;BME280;4483;48.622;9.230;2023-09-19T03:34:03;97639.09;;;16.08;100.00
8894;BME280;4483;48.622;9.230;2023-09-19T03:36:30;97645.13;;;16.08;100.00
8894;BME280;4483;48.622;9.230;2023-09-19T03:38:57;97647.63;;;16.10;100.00
8894;BME280;4483;48.622;9.230;2023-09-19T03:41:23;97650.13;;;16.11;100.00
8894;BME280;4483;48.622;9.230;2023-09-19T03:43:50;97647.44;;;16.13;100.00
8894;BME280;4483;48.622;9.230;2023-09-19T03:46:18;97652.66;;;16.13;100.00
8894;BME280;4483;48.622;9.230;2023-09-19T03:48:45;97648.25;;;16.13;100.00
8894;BME280;4483;48.622;9.230;2023-09-19T03:51:11;97650.22;;;16.10;100.00
8894;BME280;4483;48.622;9.230;2023-09-19T03:53:38;97647.53;;;16.11;100.00
8894;BME280;4483;48.622;9.230;2023-09-19T03:56:04;97634.50;;;15.99;100.00
8894;BME280;4483;48.622;9.230;2023-09-19T03:58:31;97655.31;;;16.11;100.00
8894;BME280;4483;48.622;9.230;2023-09-19T04:00:59;97648.38;;;16.12;100.00
8894;BME280;4483;48.622;9.230;2023-09-19T04:03:27;97656.25;;;16.10;100.00
8894;BME280;4483;48.622;9.230;2023-09-19T04:06:00;97646.81;;;16.09;100.00
8894;BME280;4483;48.622;9.230;2023-09-19T04:08:27;97634.09;;;16.05;100.00
8894;BME280;4483;48.622;9.230;2023-09-19T04:10:54;97635.97;;;16.03;100.00
8894;BME280;4483;48.622;9.230;2023-09-19T04:13:22;97652.09;;;16.08;100.00
8894;BME280;4483;48.622;9.230;2023-09-19T04:15:48;97645.13;;;16.08;100.00
8894;BME280;4483;48.622;9.230;2023-09-19T04:18:15;97644.84;;;16.13;100.00
8894;BME280;4483;48.622;9.230;2023-09-19T04:20:47;97645.13;;;16.08;100.00
8894;BME280;4483;48.622;9.230;2023-09-19T04:23:14;97647.94;;;16.05;100.00
8894;BME280;4483;48.622;9.230;2023-09-19T04:25:41;97655.75;;;16.05;100.00
8894;BME280;4483;48.622;9.230;2023-09-19T04:28:08;97638.25;;;15.95;100.00
8894;BME280;4483;48.622;9.230;2023-09-19T04:30:35;97651.56;;;16.03;100.00
8894;BME280;4483;48.622;9.230;2023-09-19T04:33:02;97659.47;;;16.01;100.00
8894;BME280;4483;48.622;9.230;2023-09-19T04:35:29;97660.31;;;16.02;100.00
8894;BME280;4483;48.622;9.230;2023-09-19T04:37:58;97658.63;;;16.01;100.00
8894;BME280;4483;48.622;9.230;2023-09-19T04:40:24;97662.16;;;16.00;100.00
8894;BME280;4483;48.622;9.230;2023-09-19T04:42:53;97657.16;;;15.97;100.00
8894;BME280;4483;48.622;9.230;2023-09-19T04:45:21;97665.88;;;15.96;100.00
8894;BME280;4483;48.622;9.230;2023-09-19T04:47:48;97650.91;;;15.87;100.00
8894;BME280;4483;48.622;9.230;2023-09-19T04:50:15;97656.72;;;15.90;100.00
8894;BME280;4483;48.622;9.230;2023-09-19T04:52:43;97660.28;;;15.89;100.00
8894;BME280;4483;48.622;9.230;2023-09-19T04:55:11;97659.59;;;15.86;100.00
8894;BME280;4483;48.622;9.230;2023-09-19T04:57:41;97662.41;;;15.83;100.00
8894;BME280;4483;48.622;9.230;2023-09-19T05:00:09;97662.41;;;15.83;100.00
8894;BME280;4483;48.622;9.230;2023-09-19T05:02:38;97675.31;;;15.84;100.00
8894;BME280;4483;48.622;9.230;2023-09-19T05:05:06;97670.22;;;15.83;100.00
8894;BME280;4483;48.622;9.230;2023-09-19T05:07:33;97680.38;;;15.86;100.00
8894;BME280;4483;48.622;9.230;2023-09-19T05:10:00;97682.81;;;15.89;100.00
8894;BME280;4483;48.622;9.230;2023-09-19T05:12:28;97680.00;;;15.92;100.00
8894;BME280;4483;48.622;9.230;2023-09-19T05:14:55;97690.22;;;15.95;100.00
8894;BME280;4483;48.622;9.230;2023-09-19T05:17:21;97684.09;;;15.96;100.00
8894;BME280;4483;48.622;9.230;2023-09-19T05:19:50;97687.31;;;15.99;100.00
8894;BME280;4483;48.622;9.230;2023-09-19T05:22:17;97696.47;;;16.05;100.00
8894;BME280;4483;48.622;9.230;2023-09-19T05:24:44;97702.09;;;16.11;100.00
8894;BME280;4483;48.622;9.230;2023-09-19T05:27:13;97703.47;;;16.17;100.00
8894;BME280;4483;48.622;9.230;2023-09-19T05:29:43;97700.97;;;16.16;100.00
8894;BME280;4483;48.622;9.230;2023-09-19T05:32:10;97695.16;;;16.12;100.00
8894;BME280;4483;48.622;9.230;2023-09-19T05:34:37;97716.38;;;16.19;100.00
8894;BME280;4483;48.622;9.230;2023-09-19T05:37:04;97705.03;;;16.20;100.00
8894;BME280;4483;48.622;9.230;2023-09-19T05:39:32;97722.22;;;16.22;100.00
8894;BME280;4483;48.622;9.230;2023-09-19T05:41:59;97711.94;;;16.21;100.00
8894;BME280;4483;48.622;9.230;2023-09-19T05:44:26;97715.34;;;16.21;100.00
8894;BME280;4483;48.622;9.230;2023-09-19T05:46:54;97719.63;;;16.22;100.00
8894;BME280;4483;48.622;9.230;2023-09-19T05:49:22;97724.59;;;16.25;100.00
8894;BME280;4483;48.622;9.230;2023-09-19T05:51:50;97721.28;;;16.23;100.00
8894;BME280;4483;48.622;9.230;2023-09-19T05:54:19;97737.22;;;16.31;100.00
8894;BME280;4483;48.622;9.230;2023-09-19T05:56:46;97739.81;;;16.31;100.00
8894;BME280;4483;48.622;9.230;2023-09-19T05:59:13;97746.38;;;16.37;100.00
8894;BME280;4483;48.622;9.230;2023-09-19T06:01:41;97746.28;;;16.38;100.00
8894;BME280;4483;48.622;9.230;2023-09-19T06:04:08;97750.84;;;16.35;100.00
8894;BME280;4483;48.622;9.230;2023-09-19T06:06:36;97751.75;;;16.34;100.00
8894;BME280;4483;48.622;9.230;2023-09-19T06:09:06;97743.97;;;16.34;100.00
8894;BME280;4483;48.622;9.230;2023-09-19T06:11:33;97747.63;;;16.31;100.00
8894;BME280;4483;48.622;9.230;2023-09-19T06:14:00;97755.22;;;16.34;100.00
8894;BME280;4483;48.622;9.230;2023-09-19T06:16:27;97757.31;;;16.42;100.00
8894;BME280;4483;48.622;9.230;2023-09-19T06:18:54;97763.75;;;16.36;100.00
8894;BME280;4483;48.622;9.230;2023-09-19T06:21:22;97753.34;;;16.36;100.00
8894;BME280;4483;48.622;9.230;2023-09-19T06:23:49;97763.13;;;16.33;100.00
8894;BME280;4483;48.622;9.230;2023-09-19T06:26:15;97756.91;;;16.35;100.00
8894;BME280;4483;48.622;9.230;2023-09-19T06:28:42;97772.28;;;16.38;100.00
8894;BME280;4483;48.622;9.230;2023-09-19T06:31:09;97771.53;;;16.36;100.00
8894;BME280;4483;48.622;9.230;2023-09-19T06:33:36;97775.28;;;16.32;100.00
8894;BME280;4483;48.622;9.230;2023-09-19T06:36:04;97777.91;;;16.45;100.00
8894;BME280;4483;48.622;9.230;2023-09-19T06:38:33;97780.81;;;16.40;100.00
8894;BME280;4483;48.622;9.230;2023-09-19T06:41:01;97791.00;;;16.43;100.00
8894;BME280;4483;48.622;9.230;2023-09-19T06:43:30;97792.31;;;16.50;100.00
8894;BME280;4483;48.622;9.230;2023-09-19T06:45:59;97786.81;;;16.55;100.00
8894;BME280;4483;48.622;9.230;2023-09-19T06:48:26;97786.31;;;16.62;100.00
8894;BME280;4483;48.622;9.230;2023-09-19T06:50:54;97795.91;;;16.74;100.00
8894;BME280;4483;48.622;9.230;2023-09-19T06:53:21;97799.38;;;16.87;100.00
8894;BME280;4483;48.622;9.230;2023-09-19T06:55:50;97799.72;;;16.95;100.00
8894;BME280;4483;48.622;9.230;2023-09-19T06:58:17;97795.66;;;17.04;100.00
8894;BME280;4483;48.622;9.230;2023-09-19T07:00:44;97807.22;;;17.13;100.00
8894;BME280;4483;48.622;9.230;2023-09-19T07:03:13;97807.44;;;17.22;100.00
8894;BME280;4483;48.622;9.230;2023-09-19T07:05:41;97805.34;;;17.27;100.00
8894;BME280;4483;48.622;9.230;2023-09-19T07:08:09;97809.09;;;17.36;100.00
8894;BME280;4483;48.622;9.230;2023-09-19T07:10:38;97815.38;;;17.58;100.00
8894;BME280;4483;48.622;9.230;2023-09-19T07:13:07;97819.69;;;17.95;100.00
8894;BME280;4483;48.622;9.230;2023-09-19T07:15:37;97814.38;;;18.21;100.00
8894;BME280;4483;48.622;9.230;2023-09-19T07:18:12;97813.56;;;18.56;100.00
8894;BME280;4483;48.622;9.230;2023-09-19T07:20:40;97803.00;;;18.92;100.00
8894;BME280;4483;48.622;9.230;2023-09-19T07:23:10;97813.06;;;19.21;100.00
8894;BME280;4483;48.622;9.230;2023-09-19T07:25:39;97816.47;;;19.45;100.00
8894;BME280;4483;48.622;9.230;2023-09-19T07:28:07;97812.19;;;19.66;100.00
8894;BME280;4483;48.622;9.230;2023-09-19T07:30:36;97822.25;;;19.92;100.00
8894;BME280;4483;48.622;9.230;2023-09-19T07:33:04;97823.53;;;20.09;100.00
8894;BME280;4483;48.622;9.230;2023-09-19T07:35:31;97829.97;;;20.16;100.00
8894;BME280;4483;48.622;9.230;2023-09-19T07:37:58;97835.72;;;20.21;100.00
8894;BME280;4483;48.622;9.230;2023-09-19T07:40:26;97834.00;;;20.31;100.00
8894;BME280;4483;48.622;9.230;2023-09-19T07:42:54;97825.88;;;20.56;100.00
8894;BME280;4483;48.622;9.230;2023-09-19T07:45:22;97830.63;;;20.83;100.00
8894;BME280;4483;48.622;9.230;2023-09-19T07:47:50;97832.22;;;21.06;100.00
8894;BME280;4483;48.622;9.230;2023-09-19T07:50:18;97833.06;;;21.07;100.00
8894;BME280;4483;48.622;9.230;2023-09-19T07:52:45;97836.53;;;20.96;100.00
8894;BME280;4483;48.622;9.230;2023-09-19T07:55:11;97839.75;;;20.99;100.00
8894;BME280;4483;48.622;9.230;2023-09-19T07:57:41;97845.31;;;21.06;100.00
8894;BME280;4483;48.622;9.230;2023-09-19T08:00:10;97842.00;;;21.25;100.00
8894;BME280;4483;48.622;9.230;2023-09-19T08:02:39;97846.75;;;21.31;98.72
8894;BME280;4483;48.622;9.230;2023-09-19T08:05:07;97855.69;;;21.49;99.36
8894;BME280;4483;48.622;9.230;2023-09-19T08:07:35;97857.72;;;21.66;97.58
8894;BME280;4483;48.622;9.230;2023-09-19T08:10:02;97854.19;;;21.56;97.70
8894;BME280;4483;48.622;9.230;2023-09-19T08:12:29;97854.53;;;21.42;97.15
8894;BME280;4483;48.622;9.230;2023-09-19T08:14:56;97856.88;;;21.86;97.56
8894;BME280;4483;48.622;9.230;2023-09-19T08:17:23;97856.22;;;22.33;95.44
8894;BME280;4483;48.622;9.230;2023-09-19T08:19:51;97863.06;;;22.64;91.12
8894;BME280;4483;48.622;9.230;2023-09-19T08:22:19;97862.53;;;22.99;88.94
8894;BME280;4483;48.622;9.230;2023-09-19T08:24:46;97858.38;;;23.16;86.21
8894;BME280;4483;48.622;9.230;2023-09-19T08:27:13;97854.94;;;23.34;83.43
8894;BME280;4483;48.622;9.230;2023-09-19T08:29:40;97854.38;;;23.40;81.14
8894;BME280;4483;48.622;9.230;2023-09-19T08:32:07;97853.41;;;23.41;81.61
8894;BME280;4483;48.622;9.230;2023-09-19T08:34:34;97854.94;;;23.44;81.32
8894;BME280;4483;48.622;9.230;2023-09-19T08:37:04;97869.59;;;23.27;81.51
8894;BME280;4483;48.622;9.230;2023-09-19T08:39:31;97875.53;;;23.01;82.00
8894;BME280;4483;48.622;9.230;2023-09-19T08:41:59;97875.78;;;22.78;83.00
8894;BME280;4483;48.622;9.230;2023-09-19T08:44:25;97877.13;;;22.54;82.95
8894;BME280;4483;48.622;9.230;2023-09-19T08:46:54;97881.22;;;22.37;83.12
8894;BME280;4483;48.622;9.230;2023-09-19T08:49:24;97885.50;;;22.38;83.13
8894;BME280;4483;48.622;9.230;2023-09-19T08:52:03;97883.09;;;22.16;81.00
8894;BME280;4483;48.622;9.230;2023-09-19T08:54:37;97885.47;;;22.19;81.33
8894;BME280;4483;48.622;9.230;2023-09-19T08:57:07;97886.72;;;22.64;80.55
8894;BME280;4483;48.622;9.230;2023-09-19T08:59:37;97883.44;;;22.81;79.32
8894;BME280;4483;48.622;9.230;2023-09-19T09:02:10;97876.06;;;23.52;77.29
8894;BME280;4483;48.622;9.230;2023-09-19T09:04:39;97878.69;;;24.17;75.25
8894;BME280;4483;48.622;9.230;2023-09-19T09:07:10;97864.97;;;24.85;71.27
8894;BME280;4483;48.622;9.230;2023-09-19T09:09:38;97878.22;;;25.29;69.21
8894;BME280;4483;48.622;9.230;2023-09-19T09:12:08;97876.63;;;25.53;65.37
8894;BME280;4483;48.622;9.230;2023-09-19T09:14:35;97874.50;;;25.82;64.70
8894;BME280;4483;48.622;9.230;2023-09-19T09:17:02;97879.16;;;26.14;60.90
8894;BME280;4483;48.622;9.230;2023-09-19T09:19:30;97885.81;;;26.26;61.42
8894;BME280;4483;48.622;9.230;2023-09-19T09:22:06;97877.78;;;26.02;61.23
8894;BME280;4483;48.622;9.230;2023-09-19T09:24:32;97881.63;;;25.56;61.36
8894;BME280;4483;48.622;9.230;2023-09-19T09:27:03;97873.28;;;24.91;61.98
8894;BME280;4483;48.622;9.230;2023-09-19T09:29:41;97887.25;;;24.73;62.57
8894;BME280;4483;48.622;9.230;2023-09-19T09:32:18;97886.97;;;24.76;62.81
8894;BME280;4483;48.622;9.230;2023-09-19T09:34:45;97884.34;;;24.94;63.51
8894;BME280;4483;48.622;9.230;2023-09-19T09:37:13;97901.38;;;25.00;61.78
8894;BME280;4483;48.622;9.230;2023-09-19T09:39:49;97883.66;;;25.45;61.71
8894;BME280;4483;48.622;9.230;2023-09-19T09:42:29;97886.28;;;25.27;60.61
8894;BME280;4483;48.622;9.230;2023-09-19T09:45:12;97892.13;;;24.68;61.06
8894;BME280;4483;48.622;9.230;2023-09-19T09:47:43;97891.53;;;24.20;61.95
8894;BME280;4483;48.622;9.230;2023-09-19T09:50:26;97885.63;;;23.99;63.33
8894;BME280;4483;48.622;9.230;2023-09-19T09:53:22;97887.88;;;24.04;62.95
8894;BME280;4483;48.622;9.230;2023-09-19T09:56:03;97889.28;;;23.79;63.44
8894;BME280;4483;48.622;9.230;2023-09-19T09:58:37;97886.53;;;23.80;63.02
8894;BME280;4483;48.622;9.230;2023-09-19T10:01:06;97879.25;;;24.38;61.87
8894;BME280;4483;48.622;9.230;2023-09-19T10:03:37;97885.31;;;24.93;60.29
8894;BME280;4483;48.622;9.230;2023-09-19T10:06:10;97877.06;;;25.66;58.61
8894;BME280;4483;48.622;9.230;2023-09-19T10:08:59;97876.84;;;25.85;55.93
8894;BME280;4483;48.622;9.230;2023-09-19T10:11:39;97876.03;;;26.11;56.27
8894;BME280;4483;48.622;9.230;2023-09-19T10:14:10;97879.34;;;25.95;55.84
8894;BME280;4483;48.622;9.230;2023-09-19T10:16:41;97884.00;;;25.93;56.00
8894;BME280;4483;48.622;9.230;2023-09-19T10:19:19;97879.53;;;25.68;56.60
8894;BME280;4483;48.622;9.230;2023-09-19T10:21:50;97877.91;;;25.49;56.52
8894;BME280;4483;48.622;9.230;2023-09-19T10:24:18;97889.81;;;25.36;57.10
8894;BME280;4483;48.622;9.230;2023-09-19T10:26:45;97886.75;;;25.05;57.12
8894;BME280;4483;48.622;9.230;2023-09-19T10:29:18;97888.75;;;24.49;55.83
8894;BME280;4483;48.622;9.230;2023-09-19T10:31:47;97877.00;;;24.16;56.60
8894;BME280;4483;48.622;9.230;2023-09-19T10:34:14;97882.03;;;24.00;56.46
8894;BME280;4483;48.622;9.230;2023-09-19T10:36:44;97877.59;;;24.10;56.52
8894;BME280;4483;48.622;9.230;2023-09-19T10:39:14;97875.81;;;24.01;56.72
8894;BME280;4483;48.622;9.230;2023-09-19T10:41:50;97876.47;;;24.13;56.13
8894;BME280;4483;48.622;9.230;2023-09-19T10:44:23;97870.41;;;25.02;54.04
8894;BME280;4483;48.622;9.230;2023-09-19T10:46:51;97861.53;;;25.89;52.54
8894;BME280;4483;48.622;9.230;2023-09-19T10:49:19;97862.41;;;26.73;50.77
8894;BME280;4483;48.622;9.230;2023-09-19T10:51:47;97856.31;;;27.29;47.14
8894;BME280;4483;48.622;9.230;2023-09-19T10:54:18;97856.03;;;27.56;46.01
8894;BME280;4483;48.622;9.230;2023-09-19T10:56:48;97854.59;;;27.92;45.23
8894;BME280;4483;48.622;9.230;2023-09-19T10:59:17;97851.19;;;28.30;44.61
8894;BME280;4483;48.622;9.230;2023-09-19T11:01:47;97859.50;;;28.19;43.89
8894;BME280;4483;48.622;9.230;2023-09-19T11:04:27;97851.88;;;28.24;43.37
8894;BME280;4483;48.622;9.230;2023-09-19T11:07:06;97848.63;;;28.14;42.93
8894;BME280;4483;48.622;9.230;2023-09-19T11:09:46;97849.22;;;28.24;43.31
8894;BME280;4483;48.622;9.230;2023-09-19T11:18:58;97840.53;;;27.92;43.06
8894;BME280;4483;48.622;9.230;2023-09-19T11:21:53;97828.03;;;27.69;42.84
8894;BME280;4483;48.622;9.230;2023-09-19T11:24:30;97831.03;;;27.58;42.99
8894;BME280;4483;48.622;9.230;2023-09-19T11:27:14;97828.16;;;27.84;42.98
8894;BME280;4483;48.622;9.230;2023-09-19T11:29:43;97842.81;;;27.32;43.18
8894;BME280;4483;48.622;9.230;2023-09-19T11:32:10;97842.94;;;26.90;44.00
8894;BME280;4483;48.622;9.230;2023-09-19T11:34:43;97833.19;;;26.99;44.77
8894;BME280;4483;48.622;9.230;2023-09-19T11:40:32;97826.09;;;28.18;43.65
8894;BME280;4483;48.622;9.230;2023-09-19T11:42:58;97826.88;;;28.57;42.49
8894;BME280;4483;48.622;9.230;2023-09-19T11:46:06;97817.09;;;28.66;41.51
8894;BME280;4483;48.622;9.230;2023-09-19T11:48:33;97834.44;;;28.68;40.30
8894;BME280;4483;48.622;9.230;2023-09-19T11:51:10;97820.75;;;28.57;40.96
8894;BME280;4483;48.622;9.230;2023-09-19T11:53:42;97812.25;;;28.69;41.08
8894;BME280;4483;48.622;9.230;2023-09-19T11:56:09;97813.44;;;28.90;40.30
8894;BME280;4483;48.622;9.230;2023-09-19T11:58:37;97811.53;;;28.75;40.66
8894;BME280;4483;48.622;9.230;2023-09-19T12:01:05;97820.78;;;28.18;41.00
8894;BME280;4483;48.622;9.230;2023-09-19T12:03:42;97815.38;;;27.88;41.40
8894;BME280;4483;48.622;9.230;2023-09-19T12:06:13;97810.75;;;27.90;41.87
8894;BME280;4483;48.622;9.230;2023-09-19T12:08:41;97809.44;;;28.02;41.85
8894;BME280;4483;48.622;9.230;2023-09-19T12:11:12;97802.47;;;28.31;41.98
8894;BME280;4483;48.622;9.230;2023-09-19T12:13:42;97813.13;;;28.23;42.39
8894;BME280;4483;48.622;9.230;2023-09-19T12:16:12;97800.63;;;28.40;41.84
8894;BME280;4483;48.622;9.230;2023-09-19T12:18:40;97798.97;;;28.08;41.64
8894;BME280;4483;48.622;9.230;2023-09-19T12:21:08;97789.41;;;27.99;41.92
8894;BME280;4483;48.622;9.230;2023-09-19T12:24:03;97792.81;;;28.16;42.33
8894;BME280;4483;48.622;9.230;2023-09-19T12:26:38;97784.28;;;28.28;41.77
8894;BME280;4483;48.622;9.230;2023-09-19T12:29:11;97780.84;;;28.58;41.05
8894;BME280;4483;48.622;9.230;2023-09-19T12:31:47;97772.81;;;28.89;41.21
8894;BME280;4483;48.622;9.230;2023-09-19T12:34:16;97773.28;;;29.15;40.48
8894;BME280;4483;48.622;9.230;2023-09-19T12:36:45;97771.38;;;29.24;40.93
8894;BME280;4483;48.622;9.230;2023-09-19T12:39:22;97765.47;;;29.51;40.60
8894;BME280;4483;48.622;9.230;2023-09-19T12:41:50;97772.53;;;29.73;40.51
8894;BME280;4483;48.622;9.230;2023-09-19T12:44:17;97768.50;;;29.92;40.41
8894;BME280;4483;48.622;9.230;2023-09-19T12:46:44;97769.78;;;29.96;40.11
8894;BME280;4483;48.622;9.230;2023-09-19T12:49:18;97757.91;;;29.77;40.25
8894;BME280;4483;48.622;9.230;2023-09-19T12:51:45;97765.75;;;29.85;40.08
8894;BME280;4483;48.622;9.230;2023-09-19T12:54:14;97771.22;;;29.98;39.90
8894;BME280;4483;48.622;9.230;2023-09-19T12:56:43;97767.41;;;30.01;39.89
8894;BME280;4483;48.622;9.230;2023-09-19T12:59:12;97759.44;;;30.01;40.13
8894;BME280;4483;48.622;9.230;2023-09-19T13:01:39;97754.63;;;30.11;40.15
8894;BME280;4483;48.622;9.230;2023-09-19T13:04:11;97764.97;;;30.20;40.14
8894;BME280;4483;48.622;9.230;2023-09-19T13:06:40;97760.88;;;30.32;39.95
8894;BME280;4483;48.622;9.230;2023-09-19T13:09:09;97756.78;;;30.36;39.13
8894;BME280;4483;48.622;9.230;2023-09-19T13:11:38;97759.88;;;30.54;39.56
8894;BME280;4483;48.622;9.230;2023-09-19T13:14:16;97758.34;;;30.66;39.33
8894;BME280;4483;48.622;9.230;2023-09-19T13:17:04;97757.06;;;30.41;39.38
8894;BME280;4483;48.622;9.230;2023-09-19T13:19:38;97763.59;;;30.24;39.04
8894;BME280;4483;48.622;9.230;2023-09-19T13:22:38;97756.22;;;30.05;38.86
8894;BME280;4483;48.622;9.230;2023-09-19T13:25:06;97762.63;;;29.82;38.80
8894;BME280;4483;48.622;9.230;2023-09-19T13:27:34;97761.47;;;29.18;40.03
8894;BME280;4483;48.622;9.230;2023-09-19T13:30:01;97756.31;;;28.79;40.88
8894;BME280;4483;48.622;9.230;2023-09-19T13:32:28;97759.34;;;28.45;41.34
8894;BME280;4483;48.622;9.230;2023-09-19T13:34:54;97760.81;;;28.48;41.14
8894;BME280;4483;48.622;9.230;2023-09-19T13:37:21;97753.03;;;28.54;41.25
8894;BME280;4483;48.622;9.230;2023-09-19T13:39:47;97757.91;;;28.65;40.77